SBPP

Details ICAO SBPP (PMG)
Name PONTA PORA
Region Brazil
Timezone America/Campo_Grande (UTC-3.0)
Plans Departing 5
Arriving 4
Stats Elevation 2,156 ft / 657 m (AMSL)
Location -22.549654° -55.702614°
Runways 1
Magnetic Variation 16.341° W
Sunrise 2017-12-16 08:54:38 UTC / 2017-12-16 05:54:38 Local
Sunset 2017-12-16 22:25:10 UTC / 2017-12-16 19:25:10 Local
Advertisement - Login to hide

Runways

ID Width Length Bearing (true) Bearing (mag) Surface Threshold Offset Overrun Length
03 148 ft / 45 m 6,611 ft / 2,015 m 19.99° 36.33° Asphalt 0 ft / 0 m 0 ft / 0 m
21 148 ft / 45 m 6,611 ft / 2,015 m 199.99° 216.33° Asphalt 0 ft / 0 m 0 ft / 0 m

Map

Weather


0- 5 10 15 20 25 30 35+ Temperature / ° C

Clouds and Precipitation
Forecast for 2017-12-16 12:00 UTC. Updated 2 hours ago

Ground ~20,000 ft ~40,000 ft Winds

METAR

SBPP 161300Z 04014KT CAVOK 29/23 Q1013

TAF

Not found

Frequencies

Tower 125.90 MHz PORA RDO
Warning: Do not use this data for real-world aviation or navigation. No guarantee of current accuracy is given.